Time;durP1;ratioP1;P1;durP2;ratioP2;P2;SDS_P1;SDS_P2;PMS_P1;PMS_P2;Temp;Humidity;BMP_temperature;BMP_pressure;BME280_temperature;BME280_humidity;BME280_pressure;Samples;Min_cycle;Max_cycle;Signal;HPM_P1;HPM_P2
2021/05/20 00:03:22;;;;;;;13.80;11.10;;;;;;;9.42;74.24;99786.84;123651;1127;103080;-75
2021/05/20 00:07:31;;;;;;;16.20;13.00;;;;;;;9.38;74.09;99785.25;123586;1121;102971;-75
2021/05/20 00:11:37;;;;;;;20.80;14.60;;;;;;;9.39;74.30;99789.55;123600;1127;103192;-74
2021/05/20 00:15:44;;;;;;;17.10;14.30;;;;;;;9.37;74.27;99783.55;123614;1122;103100;-75
2021/05/20 00:19:36;;;;;;;;;;;;;;;;;;;;;
2021/05/20 00:23:57;;;;;;;19.20;16.05;;;;;;;9.33;74.28;99787.98;123677;1127;102996;-75
2021/05/20 00:32:11;;;;;;;18.20;14.55;;;;;;;9.33;74.79;99787.14;123643;1127;103284;-75
2021/05/20 00:36:17;;;;;;;19.35;15.45;;;;;;;9.32;74.63;99790.64;123577;1130;103036;-76
2021/05/20 00:40:26;;;;;;;14.90;11.40;;;;;;;9.31;74.77;99796.75;126434;1092;102947;-77
2021/05/20 00:44:35;;;;;;;16.20;11.23;;;;;;;9.30;74.80;99795.91;126125;1104;103166;-76
2021/05/20 00:48:43;;;;;;;12.53;10.73;;;;;;;9.27;74.65;99805.58;125956;1108;103003;-77
2021/05/20 01:01:10;;;;;;;13.83;10.70;;;;;;;9.16;75.29;99800.75;124529;1117;102802;-76
2021/05/20 01:09:18;;;;;;;;;;;;;;;;;;;;;
2021/05/20 01:26:09;;;;;;;13.60;10.90;;;;;;;9.03;75.29;99802.89;123697;1126;103156;-75
2021/05/20 01:30:16;;;;;;;15.45;10.35;;;;;;;8.99;75.69;99793.50;123657;1127;103004;-76
2021/05/20 01:34:23;;;;;;;14.55;10.45;;;;;;;8.97;75.49;99790.06;123685;1127;103289;-75
2021/05/20 01:38:03;;;;;;;;;;;;;;;;;;;;;
2021/05/20 01:50:02;;;;;;;;;;;;;;;;;;;;;
2021/05/20 01:54:27;;;;;;;13.90;10.40;;;;;;;8.84;75.47;99812.20;123587;1129;103218;-76
2021/05/20 01:58:33;;;;;;;16.10;11.60;;;;;;;8.82;75.80;99810.55;123584;1128;103155;-75
2021/05/20 02:02:40;;;;;;;15.80;11.40;;;;;;;8.78;75.53;99814.97;123641;1128;103045;-75
2021/05/20 02:10:56;;;;;;;19.95;13.80;;;;;;;8.70;75.62;99812.63;123648;1126;103038;-75
2021/05/20 02:27:22;;;;;;;15.35;11.20;;;;;;;8.54;75.94;99815.75;123496;1130;103144;-75
2021/05/20 02:34:57;;;;;;;18.80;15.07;;;;;;;8.59;76.05;99819.05;126459;1093;102936;-75
2021/05/20 02:39:07;;;;;;;17.13;12.67;;;;;;;8.59;76.22;99819.89;126065;1104;103139;-75
2021/05/20 02:43:07;;;;;;;;;;;;;;;;;;;;;
2021/05/20 02:47:17;;;;;;;15.23;11.17;;;;;;;8.53;76.22;99829.64;124701;1109;102086;-75
2021/05/20 02:55:59;;;;;;;22.13;16.43;;;;;;;8.49;76.25;99831.48;124531;1117;103351;-74
2021/05/20 03:00:05;;;;;;;19.67;14.07;;;;;;;8.47;76.41;99830.69;123901;1124;103114;-74
2021/05/20 03:08:15;;;;;;;14.70;11.55;;;;;;;8.48;76.21;99832.39;123712;1120;103101;-75
2021/05/20 03:12:00;;;;;;;;;;;;;;;8.54;76.87;99841.73;123355;1130;103006;-76
2021/05/20 03:28:26;;;;;;;14.20;10.60;;;;;;;8.67;75.75;99837.88;123664;1127;103409;-75
2021/05/20 03:32:17;;;;;;;15.60;10.90;;;;;;;8.68;75.22;99839.58;123529;1122;103009;-74
2021/05/20 03:36:24;;;;;;;15.30;11.20;;;;;;;8.73;75.43;99837.67;123714;1119;103008;-75
2021/05/20 03:40:30;;;;;;;14.05;9.90;;;;;;;8.81;75.08;99840.05;123820;1124;103259;-76
2021/05/20 03:44:04;;;;;;;;;;;;;;;;;;;;;
2021/05/20 03:47:54;;;;;;;;;;;;;;;;;;;;;
2021/05/20 03:52:06;;;;;;;;;;;;;;;;;;;;;
2021/05/20 04:00:34;;;;;;;15.53;9.77;;;;;;;9.13;74.08;99852.00;123828;1124;102988;-75
2021/05/20 04:16:02;;;;;;;;;;;;;;;;;;;;;
2021/05/20 04:20:34;;;;;;;13.15;9.95;;;;;;;9.64;72.79;99844.20;123635;1122;103000;-76
2021/05/20 04:24:16;;;;;;;13.60;9.20;;;;;;;9.75;72.63;99847.30;123715;1125;103163;-76
2021/05/20 04:27:44;;;;;;;12.20;9.40;;;;;;;9.85;72.06;99850.41;123901;1118;103135;-75
2021/05/20 04:36:05;;;;;;;12.10;8.40;;;;;;;10.12;71.66;99866.83;123957;1124;102998;-75
2021/05/20 04:40:11;;;;;;;11.70;8.95;;;;;;;10.32;71.34;99860.91;123787;1125;102971;-75
2021/05/20 04:48:24;;;;;;;12.30;9.30;;;;;;;10.59;70.58;99865.07;123808;1116;103131;-76
2021/05/20 04:52:33;;;;;;;16.70;9.85;;;;;;;10.66;70.11;99868.31;123965;1121;103135;-75
2021/05/20 04:56:39;;;;;;;11.45;8.65;;;;;;;10.68;69.68;99876.93;123773;1124;103125;-75
2021/05/20 05:04:52;;;;;;;13.70;9.20;;;;;;;11.01;69.56;99885.20;123580;1130;103218;-76
2021/05/20 05:08:50;;;;;;;;;;;;;;;;;;;;;
2021/05/20 05:13:00;;;;;;;8.97;7.33;;;;;;;12.02;68.87;99871.40;125922;1108;103121;-76
2021/05/20 05:17:09;;;;;;;10.27;7.17;;;;;;;12.51;68.10;99870.05;125053;1111;103560;-74
2021/05/20 05:21:18;;;;;;;9.37;7.10;;;;;;;13.11;67.18;99869.86;124515;1112;102929;-76
2021/05/20 05:25:26;;;;;;;8.17;6.77;;;;;;;13.55;65.69;99876.39;124243;1117;103054;-75
2021/05/20 05:33:22;;;;;;;;;;;;;;;;;;;;;
2021/05/20 05:37:00;;;;;;;;;;;;;;;;;;;;;
2021/05/20 05:40:11;;;;;;;6.10;4.80;;;;;;;24.33;51.09;99857.08;123850;1125;103709;-75
2021/05/20 05:44:03;;;;;;;5.30;4.20;;;;;;;25.86;47.68;99853.50;123827;1124;102984;-75
2021/05/20 05:47:24;;;;;;;4.45;3.75;;;;;;;28.20;44.12;99842.64;123843;1118;103269;-76
2021/05/20 05:50:20;;;;;;;6.35;4.30;;;;;;;29.55;41.29;99839.56;124225;1120;103048;-76
2021/05/20 05:53:08;;;;;;;5.83;3.90;;;;;;;31.04;39.41;99842.05;124329;1112;103200;-76
2021/05/20 05:55:57;;;;;;;4.30;3.47;;;;;;;32.29;36.19;99839.59;124538;1111;103262;-76
2021/05/20 05:58:45;;;;;;;4.43;2.90;;;;;;;33.19;34.84;99841.17;124739;1111;103254;-76
2021/05/20 06:01:34;;;;;;;5.20;3.30;;;;;;;33.91;32.26;99840.40;125202;1103;103597;-76
2021/05/20 06:04:22;;;;;;;4.20;2.90;;;;;;;34.50;30.61;99844.04;125894;1108;103068;-76
2021/05/20 06:07:12;;;;;;;3.93;3.03;;;;;;;34.71;29.22;99841.02;125019;1110;101844;-77
2021/05/20 06:09:59;;;;;;;4.77;3.90;;;;;;;35.28;28.95;99839.23;125935;1104;103004;-77
2021/05/20 06:12:47;;;;;;;4.67;3.37;;;;;;;35.88;28.07;99836.89;126243;1101;103023;-77
2021/05/20 06:15:36;;;;;;;3.20;2.60;;;;;;;36.18;27.11;99849.75;126156;1104;103033;-77
2021/05/20 06:18:24;;;;;;;2.20;1.90;;;;;;;36.66;26.45;99836.25;126146;1101;103990;-77
2021/05/20 06:21:11;;;;;;;4.60;2.90;;;;;;;36.74;25.41;99835.09;126145;1104;101933;-77
2021/05/20 06:23:59;;;;;;;4.63;2.30;;;;;;;37.10;24.91;99843.17;126108;1104;103125;-77
2021/05/20 06:26:48;;;;;;;3.87;2.40;;;;;;;37.56;24.00;99835.38;126103;1096;102944;-76
2021/05/20 06:29:36;;;;;;;3.57;2.37;;;;;;;37.79;23.76;99844.41;126076;1104;103189;-77
2021/05/20 06:32:24;;;;;;;2.27;2.07;;;;;;;38.24;22.63;99849.23;126128;1104;102953;-77
2021/05/20 06:35:14;;;;;;;3.83;2.27;;;;;;;38.26;22.02;99844.41;126173;1101;102952;-77
2021/05/20 06:38:01;;;;;;;3.35;1.70;;;;;;;38.14;21.64;99843.55;126230;1101;103007;-77
2021/05/20 06:40:49;;;;;;;3.47;2.10;;;;;;;37.91;21.42;99855.30;126154;1101;103094;-77
2021/05/20 06:43:38;;;;;;;4.73;3.03;;;;;;;37.82;20.10;99850.44;126070;1104;103089;-78
2021/05/20 06:46:26;;;;;;;4.30;2.70;;;;;;;37.96;20.63;99849.14;126022;1104;102956;-77
2021/05/20 06:49:14;;;;;;;3.53;2.67;;;;;;;37.63;20.26;99857.86;126098;1104;102945;-77
2021/05/20 06:52:02;;;;;;;2.13;1.70;;;;;;;37.74;20.07;99849.73;126078;1104;102934;-78
2021/05/20 06:54:50;;;;;;;4.90;1.90;;;;;;;37.43;19.62;99852.74;126032;1097;102988;-77
2021/05/20 07:00:45;;;;;;;3.65;2.35;;;;;;;37.39;18.85;99846.13;126095;1101;103091;-77
2021/05/20 07:03:33;;;;;;;3.33;2.20;;;;;;;36.59;18.42;99858.05;126107;1104;103101;-77
2021/05/20 07:06:21;;;;;;;2.60;1.87;;;;;;;36.35;19.78;99860.88;126138;1101;103256;-77
2021/05/20 07:09:09;;;;;;;2.37;2.17;;;;;;;36.59;19.11;99852.63;126181;1101;102946;-78
2021/05/20 07:11:58;;;;;;;3.63;2.23;;;;;;;36.43;18.96;99855.13;126060;1104;102991;-77
2021/05/20 07:14:46;;;;;;;4.17;2.13;;;;;;;36.57;18.89;99853.91;126230;1101;103011;-77
2021/05/20 07:17:34;;;;;;;3.90;3.20;;;;;;;36.65;19.12;99852.78;126246;1101;102961;-77
2021/05/20 07:20:22;;;;;;;4.13;1.77;;;;;;;36.72;18.98;99853.52;126169;1096;102995;-77
2021/05/20 07:23:14;;;;;;;2.73;1.90;;;;;;;36.62;18.29;99851.33;126159;1101;102926;-78
2021/05/20 07:26:02;;;;;;;4.47;2.60;;;;;;;36.75;17.87;99850.34;126066;1102;102939;-78
2021/05/20 07:28:49;;;;;;;3.30;2.03;;;;;;;36.59;18.34;99849.08;126176;1101;102929;-77
2021/05/20 07:31:39;;;;;;;3.60;2.40;;;;;;;36.54;18.11;99863.34;126043;1102;102937;-77
2021/05/20 07:34:27;;;;;;;5.90;4.10;;;;;;;36.80;18.07;99847.78;126410;1101;102964;-78
2021/05/20 07:37:15;;;;;;;3.77;2.00;;;;;;;36.92;17.32;99862.26;126018;1104;102977;-76
2021/05/20 07:40:05;;;;;;;4.33;2.90;;;;;;;36.65;16.99;99852.78;126232;1101;103122;-76
2021/05/20 07:42:52;;;;;;;5.30;2.30;;;;;;;36.17;17.28;99859.78;126209;1101;102974;-76
2021/05/20 07:45:42;;;;;;;3.03;2.07;;;;;;;36.01;16.87;99861.19;126288;1101;102949;-77
2021/05/20 07:48:33;;;;;;;2.13;1.63;;;;;;;35.94;17.46;99848.76;126192;1101;102933;-76
2021/05/20 07:51:21;;;;;;;2.07;1.73;;;;;;;35.98;17.91;99856.22;126192;1096;103001;-76
2021/05/20 07:54:10;;;;;;;1.23;1.13;;;;;;;35.92;17.68;99856.30;126237;1101;103158;-76
2021/05/20 07:56:58;;;;;;;2.57;1.60;;;;;;;34.86;17.68;99850.78;126126;1096;103023;-76
2021/05/20 07:59:46;;;;;;;5.10;2.00;;;;;;;34.30;18.39;99854.08;126230;1101;102947;-76
2021/05/20 08:02:48;;;;;;;3.47;1.53;;;;;;;34.15;17.74;99854.32;126235;1096;103027;-76
2021/05/20 08:05:40;;;;;;;3.33;1.50;;;;;;;34.16;18.02;99855.98;126011;1097;102832;-76
2021/05/20 08:08:34;;;;;;;5.87;2.30;;;;;;;33.67;18.73;99853.72;126095;1104;102944;-77
2021/05/20 08:11:22;;;;;;;3.80;2.40;;;;;;;31.98;18.58;99855.38;126158;1101;102943;-76
2021/05/20 08:14:10;;;;;;;3.33;2.60;;;;;;;31.28;19.42;99854.36;126197;1101;103137;-76
2021/05/20 08:17:01;;;;;;;2.77;2.10;;;;;;;31.45;19.66;99854.93;126173;1101;102920;-76
2021/05/20 08:19:49;;;;;;;3.70;1.60;;;;;;;31.76;20.17;99851.88;126113;1104;102963;-76
2021/05/20 08:22:38;;;;;;;2.33;1.87;;;;;;;32.00;19.41;99842.52;126319;1101;102933;-76
2021/05/20 08:25:27;;;;;;;3.43;2.30;;;;;;;31.09;19.56;99850.41;126108;1104;103034;-76
2021/05/20 08:28:16;;;;;;;3.30;2.77;;;;;;;29.77;20.41;99854.80;126203;1101;102930;-76
2021/05/20 08:31:03;;;;;;;2.20;1.93;;;;;;;29.17;21.34;99852.93;126134;1101;103037;-76
2021/05/20 08:33:50;;;;;;;2.97;2.20;;;;;;;29.58;22.07;99855.32;126097;1102;103093;-76
2021/05/20 08:36:39;;;;;;;3.20;2.10;;;;;;;30.04;21.36;99856.09;126193;1101;103100;-76
2021/05/20 08:39:28;;;;;;;2.53;2.10;;;;;;;30.49;21.38;99854.22;126224;1101;102995;-76
2021/05/20 08:42:17;;;;;;;3.20;2.10;;;;;;;30.45;21.02;99852.92;126127;1101;103005;-76
2021/05/20 08:45:22;;;;;;;3.93;3.20;;;;;;;29.62;20.87;99853.09;126286;1101;102955;-77
2021/05/20 08:48:10;;;;;;;2.00;1.43;;;;;;;28.62;21.66;99836.95;126257;1101;103030;-76
2021/05/20 08:51:05;;;;;;;1.27;0.90;;;;;;;27.85;21.89;99854.62;126211;1101;103023;-77
2021/05/20 08:53:55;;;;;;;3.53;2.03;;;;;;;26.95;22.47;99867.91;126019;1104;103087;-77
2021/05/20 08:56:47;;;;;;;3.13;1.57;;;;;;;26.27;23.08;99851.89;126117;1104;103030;-76
2021/05/20 08:59:55;;;;;;;2.37;1.70;;;;;;;26.30;22.91;99861.42;126252;1101;103004;-76
2021/05/20 09:02:46;;;;;;;1.17;1.10;;;;;;;26.14;24.19;99865.69;126121;1101;103177;-77
2021/05/20 09:05:49;;;;;;;3.17;1.30;;;;;;;26.71;23.50;99859.78;126170;1101;103058;-77
2021/05/20 09:08:41;;;;;;;3.07;1.40;;;;;;;27.30;23.56;99869.50;126066;1104;102940;-76
2021/05/20 09:11:35;;;;;;;2.87;1.20;;;;;;;27.97;23.84;99862.11;126135;1104;102962;-77
2021/05/20 09:14:32;;;;;;;1.63;1.10;;;;;;;27.72;23.15;99851.61;126294;1101;103020;-77
2021/05/20 09:17:24;;;;;;;2.17;1.23;;;;;;;27.36;23.57;99854.60;126218;1096;103393;-76
2021/05/20 09:20:14;;;;;;;1.87;1.43;;;;;;;27.48;24.50;99850.59;126225;1101;103020;-76
2021/05/20 09:23:29;;;;;;;2.57;1.37;;;;;;;27.90;23.58;99857.62;126112;1101;102956;-76
2021/05/20 09:26:17;;;;;;;2.30;1.40;;;;;;;28.23;23.27;99842.30;126135;1104;103174;-77
2021/05/20 09:29:09;;;;;;;1.80;1.20;;;;;;;27.80;23.27;99863.14;126081;1104;102981;-76
2021/05/20 09:32:05;;;;;;;1.23;1.00;;;;;;;26.86;23.25;99860.84;126227;1101;102946;-76
2021/05/20 09:35:06;;;;;;;2.60;1.33;;;;;;;26.23;23.59;99861.23;126213;1101;103007;-76
2021/05/20 09:38:20;;;;;;;1.03;0.90;;;;;;;26.44;24.27;99864.38;126143;1101;102969;-76
2021/05/20 09:41:18;;;;;;;1.83;1.37;;;;;;;26.66;24.03;99859.44;126289;1101;102981;-76
2021/05/20 09:44:37;;;;;;;1.43;1.13;;;;;;;26.58;24.06;99859.42;126120;1104;102086;-76
2021/05/20 09:47:29;;;;;;;1.53;1.10;;;;;;;25.89;23.69;99866.54;126164;1102;102988;-77
2021/05/20 09:50:35;;;;;;;4.10;1.30;;;;;;;26.14;25.08;99860.34;126139;1102;103008;-78
2021/05/20 09:53:41;;;;;;;;;;;;;;;;;;;;;
2021/05/20 09:56:55;;;;;;;2.07;1.43;;;;;;;25.86;24.60;99856.17;126298;1101;102961;-76
2021/05/20 10:00:32;;;;;;;4.43;1.50;;;;;;;25.52;24.76;99858.72;126100;1104;103104;-77
2021/05/20 10:03:46;;;;;;;1.70;1.30;;;;;;;24.83;25.11;99857.52;126258;1101;103198;-76
2021/05/20 10:07:32;;;;;;;2.70;1.50;;;;;;;24.39;25.44;99862.64;126272;1101;102932;-77
2021/05/20 10:14:06;;;;;;;2.47;1.77;;;;;;;24.94;25.69;99856.45;126281;1101;103042;-78
2021/05/20 10:17:42;;;;;;;1.53;1.40;;;;;;;24.78;25.42;99843.80;126106;1097;102962;-76
2021/05/20 10:21:11;;;;;;;3.17;1.30;;;;;;;24.26;25.71;99853.30;126401;1096;103009;-77
2021/05/20 10:24:35;;;;;;;;;;;;;;;;;;;;;
2021/05/20 10:27:59;;;;;;;1.60;1.20;;;;;;;24.39;25.28;99845.81;126244;1101;103397;-77
2021/05/20 10:31:29;;;;;;;1.43;1.33;;;;;;;23.73;26.29;99852.04;126290;1101;102974;-76
2021/05/20 10:34:59;;;;;;;1.70;1.40;;;;;;;23.39;26.76;99862.27;126110;1104;103068;-77
2021/05/20 10:38:58;;;;;;;1.37;1.27;;;;;;;23.65;26.87;99851.05;126183;1101;103036;-75
2021/05/20 10:42:49;;;;;;;1.20;1.10;;;;;;;23.76;26.48;99858.90;125852;1108;103380;-76
2021/05/20 10:46:44;;;;;;;1.87;1.40;;;;;;;23.43;26.72;99868.98;125818;1102;102937;-75
2021/05/20 10:50:05;;;;;;;1.60;0.90;;;;;;;22.81;26.83;99850.70;125891;1108;103246;-77
2021/05/20 10:53:05;;;;;;;;;;;;;;;;;;;;;
2021/05/20 10:57:10;;;;;;;;;;;;;;;;;;;;;
2021/05/20 11:01:15;;;;;;;1.75;1.30;;;;;;;22.91;27.42;99857.73;125930;1102;103118;-77
2021/05/20 11:09:30;;;;;;;2.10;1.60;;;;;;;21.59;28.49;99875.40;125842;1107;103029;-76
2021/05/20 11:13:26;;;;;;;4.17;1.30;;;;;;;21.54;29.57;99869.61;125869;1108;103105;-76
2021/05/20 11:17:35;;;;;;;2.70;1.47;;;;;;;21.47;29.59;99868.45;124673;1114;103155;-77
2021/05/20 11:21:53;;;;;;;2.27;1.37;;;;;;;21.38;29.39;99874.54;124729;1114;102995;-77
2021/05/20 11:25:31;;;;;;;;;;;;;;;;;;;;;
2021/05/20 11:29:35;;;;;;;;;;;;;;;;;;;;;
2021/05/20 11:37:36;;;;;;;;;;;;;;;;;;;;;
2021/05/20 11:41:14;;;;;;;;;;;;;;;;;;;;;
2021/05/20 11:45:24;;;;;;;1.93;1.67;;;;;;;20.90;30.75;99868.75;124120;1120;102801;-76
2021/05/20 11:48:30;;;;;;;2.80;2.20;;;;;;;20.92;30.81;99872.11;124182;1120;103217;-77
2021/05/20 11:52:32;;;;;;;;;;;;;;;;;;;;;
2021/05/20 12:00:36;;;;;;;3.67;1.03;;;;;;;20.93;30.87;99864.03;124488;1109;103129;-77
2021/05/20 12:04:38;;;;;;;;;;;;;;;;;;;;;
2021/05/20 12:08:16;;;;;;;2.00;1.40;;;;;;;20.84;29.41;99842.75;124692;1106;103122;-76
2021/05/20 12:12:06;;;;;;;1.60;1.40;;;;;;;20.56;29.77;99852.06;125091;1110;102978;-76
2021/05/20 12:20:23;;;;;;;;;;;;;;;;;;;;;
2021/05/20 12:24:33;;;;;;;2.07;1.20;;;;;;;20.79;30.28;99851.89;125120;1110;103156;-77
2021/05/20 12:28:12;;;;;;;1.57;1.20;;;;;;;21.00;29.84;99849.30;124771;1114;103192;-76
2021/05/20 12:31:42;;;;;;;2.07;1.20;;;;;;;20.90;29.36;99853.69;124753;1114;103107;-77
2021/05/20 12:35:32;;;;;;;1.57;1.40;;;;;;;20.74;29.81;99862.03;124741;1114;103541;-77
2021/05/20 12:39:31;;;;;;;;;;;;;;;;;;;;;
2021/05/20 12:43:02;;;;;;;2.27;1.40;;;;;;;20.66;30.18;99855.67;124603;1114;103001;-77
2021/05/20 12:46:45;;;;;;;;;;;;;;;;;;;;;
2021/05/20 12:50:39;;;;;;;;;;;;;;;;;;;;;
2021/05/20 12:54:33;;;;;;;1.53;1.43;;;;;;;20.12;30.03;99867.81;124638;1114;103110;-76
2021/05/20 12:58:56;;;;;;;2.17;1.80;;;;;;;20.08;30.22;99860.20;124783;1114;102969;-77
2021/05/20 13:02:28;;;;;;;1.70;1.40;;;;;;;20.01;30.56;99864.30;124460;1117;103015;-77
2021/05/20 13:06:21;;;;;;;;;;;;;;;;;;;;;
2021/05/20 13:14:58;;;;;;;4.27;3.10;;;;;;;19.79;30.79;99854.53;124348;1118;103144;-80
2021/05/20 13:26:46;;;;;;;7.20;4.20;;;;;;;20.19;31.20;99857.58;124064;1124;102974;-79
2021/05/20 13:35:00;;;;;;;5.10;3.20;;;;;;;20.25;30.35;99835.91;124077;1120;103014;-80
2021/05/20 13:39:06;;;;;;;6.90;4.60;;;;;;;20.23;29.97;99848.42;124074;1121;102938;-80
2021/05/20 13:42:31;;;;;;;;;;;;;;;;;;;;;
2021/05/20 13:46:16;;;;;;;;;;;;;;;;;;;;;
2021/05/20 13:50:50;;;;;;;6.57;3.73;;;;;;;20.05;30.31;99848.06;123752;1124;103013;-77
2021/05/20 13:58:40;;;;;;;4.73;2.68;;;;;;;19.83;30.25;99846.23;123857;1115;103094;-78
2021/05/20 14:02:38;;;;;;;4.20;2.33;;;;;;;19.69;30.47;99864.95;123865;1123;103117;-77
2021/05/20 14:06:47;;;;;;;4.10;3.10;;;;;;;19.56;31.12;99859.74;123850;1124;103033;-77
2021/05/20 14:10:53;;;;;;;5.60;2.10;;;;;;;19.51;31.18;99856.58;123712;1127;103535;-78
2021/05/20 14:26:30;;;;;;;;;;;;;;;;;;;;;
2021/05/20 14:34:06;;;;;;;3.40;2.00;;;;;;;18.80;32.84;99853.97;126529;1092;103039;-78
2021/05/20 14:38:01;;;;;;;3.70;3.13;;;;;;;18.73;33.36;99848.29;126283;1101;102931;-79
2021/05/20 14:42:05;;;;;;;;;;;;;;;;;;;;;
2021/05/20 14:46:15;;;;;;;4.93;3.03;;;;;;;18.46;33.38;99844.94;125883;1108;102974;-77
2021/05/20 15:08:06;;;;;;;8.80;5.90;;;;;;;17.97;35.55;99865.06;124128;1121;103548;-79
2021/05/20 15:16:24;;;;;;;4.10;3.00;;;;;;;17.69;36.55;99870.52;123769;1126;103250;-80
2021/05/20 15:20:18;;;;;;;7.80;4.80;;;;;;;17.63;36.85;99874.39;123701;1127;103209;-78
2021/05/20 15:23:34;;;;;;;;;;;;;;;;;;;;;
2021/05/20 15:27:55;;;;;;;;;;;;;;;;;;;;;
2021/05/20 15:32:16;;;;;;;8.43;5.33;;;;;;;18.03;37.12;99880.47;123871;1121;103191;-78
2021/05/20 15:40:05;;;;;;;9.20;5.15;;;;;;;18.16;36.56;99867.28;123861;1123;103071;-78
2021/05/20 15:44:36;;;;;;;13.30;6.70;;;;;;;18.12;36.60;99857.86;123836;1127;103237;-78
2021/05/20 15:53:00;;;;;;;7.45;4.10;;;;;;;17.98;37.08;99868.55;123740;1124;103053;-78
2021/05/20 16:01:05;;;;;;;6.00;3.50;;;;;;;17.96;37.22;99862.53;123713;1127;103013;-78
2021/05/20 16:17:30;;;;;;;5.75;3.50;;;;;;;17.56;38.92;99880.16;123797;1124;103011;-78
2021/05/20 16:21:22;;;;;;;9.25;5.00;;;;;;;17.54;38.65;99893.45;123872;1123;103713;-77
2021/05/20 16:42:17;;;;;;;;;;;;;;;;;;;;;
2021/05/20 16:46:35;;;;;;;5.75;3.75;;;;;;;17.14;39.74;99900.49;123905;1119;103240;-77
2021/05/20 17:02:27;;;;;;;4.77;3.30;;;;;;;16.70;41.52;99919.98;126514;1101;103020;-78
2021/05/20 17:06:37;;;;;;;7.83;4.70;;;;;;;16.59;41.73;99925.88;125913;1107;103263;-78
2021/05/20 17:14:55;;;;;;;5.57;2.83;;;;;;;16.36;41.86;99930.87;124474;1117;103108;-78
2021/05/20 17:22:58;;;;;;;5.93;3.23;;;;;;;15.99;42.37;99930.45;126509;1092;103381;-79
2021/05/20 17:27:07;;;;;;;6.43;3.20;;;;;;;15.82;42.59;99938.48;126046;1100;103454;-78
2021/05/20 17:35:27;;;;;;;8.18;3.65;;;;;;;15.56;43.41;99935.54;125722;1103;103105;-78
2021/05/20 17:39:38;;;;;;;7.77;3.80;;;;;;;15.41;44.02;99924.12;125050;1111;103048;-78
2021/05/20 17:43:45;;;;;;;4.23;3.00;;;;;;;15.30;44.25;99930.94;124723;1114;103110;-79
2021/05/20 17:56:13;;;;;;;;;;;;;;;;;;;;;
2021/05/20 18:04:44;;;;;;;;;;;;;;;14.82;46.09;99935.34;123753;1127;103390;-77
2021/05/20 18:08:14;;;;;;;4.30;2.30;;;;;;;14.72;46.43;99939.38;123782;1126;103010;-77
2021/05/20 18:24:27;;;;;;;6.40;4.30;;;;;;;14.26;47.52;99940.95;123982;1120;103039;-75
2021/05/20 18:28:24;;;;;;;3.83;2.97;;;;;;;14.13;48.14;99940.73;124183;1117;103183;-76
2021/05/20 18:32:32;;;;;;;;;;;;;;;;;;;;;
2021/05/20 18:36:17;;;;;;;;;;;;;;;;;;;;;
2021/05/20 18:40:27;;;;;;;2.27;2.07;;;;;;;13.76;48.63;99937.36;124364;1117;103049;-76
2021/05/20 18:44:09;;;;;;;;;;;;;;;;;;;;;
2021/05/20 18:48:44;;;;;;;4.70;2.90;;;;;;;13.55;49.60;99949.76;124203;1120;103000;-75
2021/05/20 18:56:32;;;;;;;;;;;;;;;;;;;;;
2021/05/20 19:08:27;;;;;;;;;;;;;;;;;;;;;
2021/05/20 19:12:59;;;;;;;3.15;2.60;;;;;;;12.99;51.65;99958.53;123797;1127;102350;-76
2021/05/20 19:16:57;;;;;;;4.95;3.50;;;;;;;12.90;51.68;99969.41;123569;1129;103202;-76
2021/05/20 19:40:26;;;;;;;;;;;;;;;;;;;;;
2021/05/20 19:44:23;;;;;;;;;;;;;;;;;;;;;
2021/05/20 19:48:57;;;;;;;4.50;3.30;;;;;;;12.36;53.24;99972.73;126489;1092;102974;-77
2021/05/20 20:05:16;;;;;;;3.67;3.00;;;;;;;12.22;53.96;99975.13;125961;1108;103221;-77
2021/05/20 20:09:24;;;;;;;5.87;3.20;;;;;;;12.20;54.14;99987.38;125042;1111;103470;-77
2021/05/20 20:13:29;;;;;;;3.80;2.90;;;;;;;12.17;54.28;99975.30;124491;1117;103203;-78
2021/05/20 20:18:05;;;;;;;4.60;3.30;;;;;;;12.15;54.36;99974.52;123830;1125;103139;-77
2021/05/20 20:21:57;;;;;;;;;;;;;;;;;;;;;
2021/05/20 20:45:14;;;;;;;7.05;5.00;;;;;;;11.88;56.12;99978.31;126416;1085;101328;-84
2021/05/20 20:48:02;;;;;;;6.57;5.07;;;;;;;11.82;56.29;99976.78;126181;1087;135716;-82
2021/05/20 20:50:53;;;;;;;7.00;5.00;;;;;;;11.81;56.57;99980.31;126094;1099;102927;-82
2021/05/20 20:53:44;;;;;;;9.67;5.93;;;;;;;11.78;56.77;99988.25;126170;1104;102978;-81
2021/05/20 20:56:33;;;;;;;8.57;6.13;;;;;;;11.74;56.88;99978.84;126191;1104;102973;-81
2021/05/20 20:59:20;;;;;;;8.70;6.30;;;;;;;11.68;57.20;99977.34;126170;1105;103088;-83
2021/05/20 21:02:08;;;;;;;;;;;;;;;11.66;57.32;99983.52;126323;1104;103117;-81
2021/05/20 21:04:57;;;;;;;9.75;6.85;;;;;;;11.62;57.55;99985.41;126246;1104;102994;-81
2021/05/20 21:07:45;;;;;;;10.00;6.73;;;;;;;11.60;57.90;99979.40;126190;1104;103032;-83
2021/05/20 21:10:37;;;;;;;9.30;7.07;;;;;;;11.58;58.21;99982.98;126200;1104;103075;-81
2021/05/20 21:13:25;;;;;;;8.37;7.00;;;;;;;11.56;58.34;99980.44;126110;1104;102751;-84
2021/05/20 21:16:15;;;;;;;9.40;7.30;;;;;;;11.50;58.51;99984.16;126181;1104;102929;-83
2021/05/20 21:19:03;;;;;;;8.93;7.70;;;;;;;11.47;59.08;99984.26;126223;1104;101466;-81
2021/05/20 21:21:52;;;;;;;9.63;7.67;;;;;;;11.42;59.33;99986.21;126158;1104;102950;-81
2021/05/20 21:24:41;;;;;;;10.90;7.70;;;;;;;11.41;59.51;99981.05;126125;1104;103011;-81
2021/05/20 21:27:29;;;;;;;9.70;7.90;;;;;;;11.38;59.79;99986.41;126186;1099;102975;-81
2021/05/20 21:30:17;;;;;;;9.73;8.10;;;;;;;11.32;60.20;99984.89;126131;1104;103628;-82
2021/05/20 21:33:06;;;;;;;11.00;8.43;;;;;;;11.28;60.68;99978.06;126166;1104;103314;-83
2021/05/20 21:35:54;;;;;;;11.30;8.70;;;;;;;11.26;60.66;99976.42;126182;1104;102973;-83
2021/05/20 21:38:42;;;;;;;10.50;8.10;;;;;;;11.22;60.91;99974.86;126197;1104;101951;-82
2021/05/20 21:41:31;;;;;;;8.83;7.50;;;;;;;11.16;61.03;99968.13;126104;1104;103065;-82
2021/05/20 21:44:19;;;;;;;11.10;8.05;;;;;;;11.12;61.40;99975.20;126160;1104;102945;-82
2021/05/20 21:47:08;;;;;;;10.47;8.43;;;;;;;11.09;61.47;99977.93;126094;1100;103091;-82
2021/05/20 21:49:55;;;;;;;11.73;8.50;;;;;;;11.05;61.71;99970.28;126072;1104;103038;-81
2021/05/20 21:52:44;;;;;;;11.37;8.60;;;;;;;11.01;61.85;99969.56;126145;1100;102933;-82
2021/05/20 21:55:32;;;;;;;9.80;8.00;;;;;;;10.98;62.07;99968.83;126056;1105;102937;-82
2021/05/20 21:58:20;;;;;;;9.53;8.47;;;;;;;10.94;62.40;99967.22;126070;1105;102962;-82
2021/05/20 22:01:07;;;;;;;;;;;;;;;10.90;62.42;99972.56;126097;1104;102974;-82
2021/05/20 22:03:57;;;;;;;13.00;7.90;;;;;;;10.86;62.99;99964.92;126078;1104;102995;-82
2021/05/20 22:06:45;;;;;;;9.97;8.57;;;;;;;10.82;62.66;99969.41;126218;1104;102936;-82
2021/05/20 22:09:41;;;;;;;9.97;8.83;;;;;;;10.81;62.96;99972.92;126117;1099;103227;-82
2021/05/20 22:12:38;;;;;;;10.77;8.90;;;;;;;10.78;63.35;99980.02;126191;1104;102942;-81
2021/05/20 22:15:30;;;;;;;9.97;8.60;;;;;;;10.73;63.17;99979.31;126132;1104;101509;-81
2021/05/20 22:18:20;;;;;;;10.23;8.57;;;;;;;10.67;63.63;99969.97;125995;1100;103147;-82
2021/05/20 22:21:08;;;;;;;9.87;8.70;;;;;;;10.63;63.34;99968.39;126137;1104;103021;-82
2021/05/20 22:23:56;;;;;;;9.60;8.10;;;;;;;10.57;63.26;99966.84;126126;1099;102787;-82
2021/05/20 22:27:49;;;;;;;10.97;8.83;;;;;;;10.55;63.41;99965.20;126155;1099;103059;-82
2021/05/20 22:32:59;;;;;;;13.47;8.53;;;;;;;10.49;63.48;99961.06;126146;1104;102890;-81
2021/05/20 22:35:46;;;;;;;9.37;8.00;;;;;;;10.48;64.03;99966.34;126051;1104;102943;-81
2021/05/20 22:38:34;;;;;;;9.30;8.30;;;;;;;10.44;63.84;99962.99;126183;1104;102960;-81
2021/05/20 22:41:24;;;;;;;9.85;8.65;;;;;;;10.42;64.15;99975.23;126060;1104;103033;-81
2021/05/20 22:44:16;;;;;;;13.27;9.63;;;;;;;10.39;64.29;99969.26;126225;1104;102943;-81
2021/05/20 22:47:03;;;;;;;11.10;9.67;;;;;;;10.36;64.71;99974.59;126111;1104;103424;-81
2021/05/20 22:49:51;;;;;;;10.03;8.40;;;;;;;10.33;64.56;99966.88;126213;1104;102920;-81
2021/05/20 22:52:39;;;;;;;10.23;8.47;;;;;;;10.26;64.65;99972.32;126088;1104;103075;-81
2021/05/20 22:55:27;;;;;;;12.40;9.30;;;;;;;10.23;64.63;99968.95;126098;1105;104383;-82
2021/05/20 22:58:14;;;;;;;10.30;9.17;;;;;;;10.19;64.74;99970.78;126179;1104;101796;-81
2021/05/20 23:01:02;;;;;;;10.50;9.00;;;;;;;10.14;64.93;99962.28;126063;1105;103061;-81